Time;durP1;ratioP1;P1;durP2;ratioP2;P2;SDS_P1;SDS_P2;PMS_P1;PMS_P2;Temp;Humidity;BMP_temperature;BMP_pressure;BME280_temperature;BME280_humidity;BME280_pressure;Samples;Min_cycle;Max_cycle;Signal;HPM_P1;HPM_P2
2021/05/05 00:02:16;;;;;;;7.73;6.03;;;6.30;99.90;;;;;;5052285;28;20175;-66
2021/05/05 00:04:42;;;;;;;5.40;4.43;;;6.30;99.90;;;;;;5071302;28;20202;-66
2021/05/05 00:07:07;;;;;;;5.63;4.97;;;6.20;99.90;;;;;;5071805;28;20174;-66
2021/05/05 00:09:33;;;;;;;8.63;4.83;;;6.20;99.90;;;;;;5055632;28;20179;-66
2021/05/05 00:11:58;;;;;;;4.97;4.47;;;6.10;99.90;;;;;;5070386;28;20590;-67
2021/05/05 00:14:25;;;;;;;5.03;4.57;;;6.10;99.90;;;;;;5054764;28;20206;-67
2021/05/05 00:16:51;;;;;;;5.00;4.23;;;6.10;99.90;;;;;;5051602;28;20548;-64
2021/05/05 00:19:16;;;;;;;4.47;4.07;;;6.10;99.90;;;;;;5067793;28;20176;-66
2021/05/05 00:21:42;;;;;;;6.70;4.87;;;6.10;99.90;;;;;;5071613;28;20166;-66
2021/05/05 00:24:09;;;;;;;4.27;3.93;;;6.10;99.90;;;;;;5057068;28;20648;-66
2021/05/05 00:26:36;;;;;;;4.63;4.23;;;6.00;99.90;;;;;;5051874;28;20660;-65
2021/05/05 00:29:01;;;;;;;7.37;4.60;;;6.00;99.90;;;;;;5065294;28;20181;-66
2021/05/05 00:31:27;;;;;;;4.77;4.33;;;6.00;99.90;;;;;;5070177;28;20554;-67
2021/05/05 00:33:53;;;;;;;5.10;4.70;;;6.00;99.90;;;;;;5059054;28;20206;-66
2021/05/05 00:36:18;;;;;;;4.47;4.03;;;5.90;99.90;;;;;;5050444;28;20170;-67
2021/05/05 00:38:47;;;;;;;5.10;4.67;;;5.90;99.90;;;;;;5062551;28;20257;-66
2021/05/05 00:41:13;;;;;;;5.87;4.60;;;5.90;99.90;;;;;;5071255;28;20166;-66
2021/05/05 00:43:39;;;;;;;6.13;4.73;;;5.90;99.90;;;;;;5061303;28;20218;-67
2021/05/05 00:46:05;;;;;;;7.73;5.00;;;5.90;99.90;;;;;;5051485;28;20170;-66
2021/05/05 00:48:31;;;;;;;6.33;5.27;;;5.80;99.90;;;;;;5060455;28;20177;-66
2021/05/05 00:50:57;;;;;;;8.93;5.07;;;5.70;99.90;;;;;;5071111;28;20227;-66
2021/05/05 00:53:23;;;;;;;9.07;5.43;;;5.70;99.90;;;;;;5063694;28;20687;-66
2021/05/05 00:55:49;;;;;;;6.30;5.53;;;5.60;99.90;;;;;;5051427;28;20243;-66
2021/05/05 00:58:16;;;;;;;7.50;5.43;;;5.60;99.90;;;;;;5058167;28;20687;-66
2021/05/05 01:00:44;;;;;;;7.57;5.50;;;5.50;99.90;;;;;;5071189;28;20249;-65
2021/05/05 01:03:10;;;;;;;7.23;5.33;;;5.50;99.90;;;;;;5069537;28;20186;-65
2021/05/05 01:05:35;;;;;;;8.53;5.60;;;5.60;99.90;;;;;;5071393;28;20234;-66
2021/05/05 01:08:02;;;;;;;6.73;5.23;;;5.60;99.90;;;;;;5066362;28;20188;-66
2021/05/05 01:10:28;;;;;;;8.33;5.20;;;5.60;99.90;;;;;;5052197;28;20260;-66
2021/05/05 01:12:55;;;;;;;5.60;5.03;;;5.60;99.90;;;;;;5071003;28;20232;-67
2021/05/05 01:15:21;;;;;;;6.33;5.27;;;5.60;99.90;;;;;;5071215;28;20188;-66
2021/05/05 01:17:46;;;;;;;8.00;5.87;;;5.60;99.90;;;;;;5052479;28;20258;-65
2021/05/05 01:20:13;;;;;;;6.13;5.50;;;5.70;99.90;;;;;;5050877;28;20167;-65
2021/05/05 01:22:39;;;;;;;6.30;5.53;;;5.90;99.90;;;;;;5067960;28;20643;-66
2021/05/05 01:25:06;;;;;;;5.40;4.90;;;5.90;99.90;;;;;;5069708;28;20228;-65
2021/05/05 01:27:32;;;;;;;7.97;5.70;;;5.90;99.90;;;;;;5054677;28;20237;-66
2021/05/05 01:29:57;;;;;;;5.53;5.03;;;6.00;99.90;;;;;;5050820;28;20167;-66
2021/05/05 01:32:25;;;;;;;5.80;4.93;;;6.00;99.90;;;;;;5053647;28;20203;-66
2021/05/05 01:34:51;;;;;;;6.33;4.87;;;6.10;99.90;;;;;;5050838;28;20199;-65
2021/05/05 01:37:17;;;;;;;6.00;4.70;;;6.20;99.90;;;;;;5064864;28;20185;-65
2021/05/05 01:39:43;;;;;;;5.67;4.70;;;6.20;99.90;;;;;;5070965;28;20158;-66
2021/05/05 01:42:09;;;;;;;13.43;5.57;;;6.10;99.90;;;;;;5058545;28;20174;-66
2021/05/05 01:44:37;;;;;;;5.13;4.63;;;6.20;99.90;;;;;;5050941;28;20289;-66
2021/05/05 01:47:04;;;;;;;5.50;5.00;;;6.30;99.90;;;;;;5062262;28;20216;-66
2021/05/05 01:49:30;;;;;;;5.77;4.80;;;6.30;99.90;;;;;;5068363;28;20175;-65
2021/05/05 01:52:03;;;;;;;5.90;5.40;;;6.20;99.90;;;;;;5060305;28;20232;-65
2021/05/05 01:54:29;;;;;;;5.73;5.23;;;6.10;99.90;;;;;;5050924;28;20202;-67
2021/05/05 01:57:21;;;;;;;8.13;6.10;;;6.00;99.90;;;;;;5062170;28;20669;-66
2021/05/05 01:59:48;;;;;;;8.80;5.50;;;6.00;99.90;;;;;;5055866;28;20178;-66
2021/05/05 02:02:14;;;;;;;6.33;5.67;;;6.00;99.90;;;;;;5066604;28;20186;-65
2021/05/05 02:04:39;;;;;;;11.57;7.53;;;6.00;99.90;;;;;;5074358;28;20551;-67
2021/05/05 02:07:05;;;;;;;10.37;7.73;;;6.00;99.90;;;;;;5061954;28;20179;-66
2021/05/05 02:09:31;;;;;;;8.50;7.57;;;6.10;99.90;;;;;;5053525;28;20179;-66
2021/05/05 02:11:56;;;;;;;9.90;7.70;;;6.00;99.90;;;;;;5062693;28;20186;-65
2021/05/05 02:14:22;;;;;;;8.97;6.77;;;5.90;99.90;;;;;;5060802;28;20297;-66
2021/05/05 02:16:53;;;;;;;8.03;5.23;;;5.90;99.90;;;;;;5061222;28;20540;-66
2021/05/05 02:19:18;;;;;;;7.00;5.60;;;5.70;99.90;;;;;;5072517;28;20170;-66
2021/05/05 02:21:44;;;;;;;6.20;5.70;;;5.70;99.90;;;;;;5073768;28;20175;-66
2021/05/05 02:24:10;;;;;;;6.43;5.37;;;5.60;99.90;;;;;;5072762;28;20197;-67
2021/05/05 02:26:35;;;;;;;8.60;5.77;;;5.60;99.90;;;;;;5053978;28;20588;-67
2021/05/05 02:29:01;;;;;;;6.00;5.40;;;5.60;99.90;;;;;;5053758;28;20559;-66
2021/05/05 02:31:27;;;;;;;6.50;5.17;;;5.60;99.90;;;;;;5068630;28;20197;-64
2021/05/05 02:33:52;;;;;;;5.60;5.10;;;5.60;99.90;;;;;;5073678;28;20262;-65
2021/05/05 02:36:18;;;;;;;6.80;5.53;;;5.60;99.90;;;;;;5056109;28;20171;-65
2021/05/05 02:38:43;;;;;;;13.53;5.90;;;5.60;99.90;;;;;;5053770;28;20167;-65
2021/05/05 02:41:09;;;;;;;6.90;5.70;;;5.60;99.90;;;;;;5069554;28;20670;-65
2021/05/05 02:43:35;;;;;;;5.87;5.20;;;5.60;99.90;;;;;;5073545;28;20218;-64
2021/05/05 02:46:00;;;;;;;6.00;4.73;;;5.60;99.90;;;;;;5057220;28;20171;-66
2021/05/05 02:48:26;;;;;;;8.03;5.07;;;5.60;99.90;;;;;;5053564;28;20710;-66
2021/05/05 02:50:51;;;;;;;7.17;5.60;;;5.60;99.90;;;;;;5066851;28;20188;-65
2021/05/05 02:53:17;;;;;;;6.53;5.70;;;5.70;99.90;;;;;;5073267;28;20569;-64
2021/05/05 02:55:43;;;;;;;6.77;5.33;;;5.70;99.90;;;;;;5060081;28;20198;-65
2021/05/05 02:58:08;;;;;;;9.97;6.33;;;5.70;99.90;;;;;;5053283;28;20609;-66
2021/05/05 03:00:34;;;;;;;7.00;5.30;;;5.80;99.90;;;;;;5060810;28;20179;-65
2021/05/05 03:02:59;;;;;;;10.37;6.03;;;5.80;99.90;;;;;;5052956;28;20195;-65
2021/05/05 03:05:25;;;;;;;8.50;6.47;;;5.80;99.90;;;;;;5061159;28;20178;-65
2021/05/05 03:07:51;;;;;;;5.97;5.47;;;5.70;99.90;;;;;;5072004;28;20276;-66
2021/05/05 03:10:17;;;;;;;7.03;5.60;;;5.70;99.90;;;;;;5064110;28;20257;-65
2021/05/05 03:12:43;;;;;;;7.10;5.90;;;5.70;99.90;;;;;;5052968;28;20210;-65
2021/05/05 03:15:09;;;;;;;6.90;6.20;;;5.70;99.90;;;;;;5059534;28;20643;-65
2021/05/05 03:17:36;;;;;;;10.93;5.40;;;5.70;99.90;;;;;;5061782;28;20182;-66
2021/05/05 03:20:03;;;;;;;6.97;5.47;;;5.70;99.90;;;;;;5057825;28;20174;-65
2021/05/05 03:22:29;;;;;;;7.47;6.67;;;5.70;99.90;;;;;;5072656;28;20162;-65
2021/05/05 03:24:54;;;;;;;10.40;5.37;;;5.80;99.90;;;;;;5068651;28;20182;-65
2021/05/05 03:27:20;;;;;;;9.23;7.00;;;5.80;99.90;;;;;;5052738;28;20621;-65
2021/05/05 03:29:45;;;;;;;9.83;5.80;;;5.80;99.90;;;;;;5054267;28;20177;-66
2021/05/05 03:32:11;;;;;;;7.17;6.27;;;5.80;99.90;;;;;;5072561;28;20661;-65
2021/05/05 03:34:37;;;;;;;5.70;5.20;;;5.70;99.90;;;;;;5071300;28;20202;-66
2021/05/05 03:37:02;;;;;;;6.93;5.73;;;5.70;99.90;;;;;;5052398;28;20166;-64
2021/05/05 03:39:29;;;;;;;17.27;6.17;;;5.60;99.90;;;;;;5052569;28;20171;-66
2021/05/05 03:41:55;;;;;;;7.47;5.33;;;5.70;99.90;;;;;;5052335;28;20652;-65
2021/05/05 03:44:20;;;;;;;7.87;5.70;;;5.60;99.90;;;;;;5052256;28;20241;-65
2021/05/05 03:46:46;;;;;;;7.50;6.10;;;5.60;99.90;;;;;;5070839;28;20655;-66
2021/05/05 03:49:12;;;;;;;12.77;6.10;;;5.60;99.90;;;;;;5072256;28;20174;-66
2021/05/05 03:51:37;;;;;;;12.33;6.20;;;5.60;99.90;;;;;;5055353;28;20551;-66
2021/05/05 03:54:03;;;;;;;11.30;6.97;;;5.60;99.90;;;;;;5052184;28;20209;-65
2021/05/05 03:56:29;;;;;;;8.13;6.23;;;5.60;99.90;;;;;;5067276;28;20173;-65
2021/05/05 03:58:55;;;;;;;12.23;6.73;;;5.60;99.90;;;;;;5072076;28;20303;-63
2021/05/05 04:01:20;;;;;;;8.03;6.60;;;5.60;99.90;;;;;;5057392;28;20178;-65
2021/05/05 04:03:46;;;;;;;7.67;5.53;;;5.50;99.90;;;;;;5052051;28;20197;-65
2021/05/05 04:06:11;;;;;;;10.47;6.50;;;5.50;99.90;;;;;;5065160;28;20174;-64
2021/05/05 04:08:37;;;;;;;8.03;7.13;;;5.50;99.90;;;;;;5072097;28;20689;-64
2021/05/05 04:11:04;;;;;;;9.47;6.37;;;5.60;99.90;;;;;;5059777;28;20240;-66
2021/05/05 04:13:29;;;;;;;12.37;7.40;;;5.50;99.90;;;;;;5051868;28;20203;-64
2021/05/05 04:15:55;;;;;;;13.37;7.07;;;5.50;99.90;;;;;;5062484;28;20175;-65
2021/05/05 04:18:21;;;;;;;12.97;7.30;;;5.60;99.90;;;;;;5068433;28;20756;-66
2021/05/05 04:20:47;;;;;;;10.60;6.60;;;5.60;99.90;;;;;;5062248;28;20182;-65
2021/05/05 04:23:13;;;;;;;9.87;6.40;;;5.60;99.90;;;;;;5050861;28;20205;-65
2021/05/05 04:25:38;;;;;;;9.93;6.67;;;5.60;99.90;;;;;;5059742;28;20252;-66
2021/05/05 04:28:04;;;;;;;14.77;6.77;;;5.60;99.90;;;;;;5071792;28;20266;-64
2021/05/05 04:30:30;;;;;;;10.40;6.83;;;5.70;99.90;;;;;;5064858;28;20618;-65
2021/05/05 04:32:56;;;;;;;14.20;7.33;;;5.70;99.90;;;;;;5051502;28;20199;-66
2021/05/05 04:35:21;;;;;;;10.30;5.90;;;5.70;99.90;;;;;;5056970;28;20174;-66
2021/05/05 04:37:47;;;;;;;10.10;6.27;;;5.70;99.90;;;;;;5071738;28;20177;-65
2021/05/05 04:40:13;;;;;;;11.47;7.40;;;5.70;99.90;;;;;;5067524;28;20372;-65
2021/05/05 04:42:39;;;;;;;11.13;7.27;;;5.90;99.90;;;;;;5051471;28;20170;-65
2021/05/05 04:45:06;;;;;;;10.37;6.97;;;5.80;99.90;;;;;;5054170;28;20248;-65
2021/05/05 04:47:34;;;;;;;10.33;7.83;;;5.90;99.90;;;;;;5071587;28;20170;-66
2021/05/05 04:50:00;;;;;;;15.80;6.63;;;6.00;99.90;;;;;;5069418;28;20255;-65
2021/05/05 04:52:26;;;;;;;9.30;7.17;;;6.00;99.90;;;;;;5051588;28;20177;-65
2021/05/05 04:54:51;;;;;;;14.60;7.30;;;6.20;99.90;;;;;;5051970;28;20206;-65
2021/05/05 04:57:17;;;;;;;14.47;7.40;;;6.20;99.90;;;;;;5071366;28;20173;-64
2021/05/05 04:59:43;;;;;;;14.10;7.43;;;6.30;99.90;;;;;;5069867;28;20201;-65
2021/05/05 05:02:08;;;;;;;8.77;6.40;;;6.40;99.90;;;;;;5051980;28;20178;-65
2021/05/05 05:04:37;;;;;;;14.67;7.73;;;6.40;99.90;;;;;;5051418;28;20191;-65
2021/05/05 05:07:05;;;;;;;7.67;6.90;;;6.40;99.90;;;;;;5070123;28;20606;-65
2021/05/05 05:09:31;;;;;;;9.40;7.33;;;6.40;99.90;;;;;;5071169;28;20515;-65
2021/05/05 05:11:57;;;;;;;10.27;7.33;;;6.30;99.90;;;;;;5069697;28;20852;-66
2021/05/05 05:14:22;;;;;;;11.33;6.77;;;6.30;99.90;;;;;;5070826;28;20234;-64
2021/05/05 05:16:48;;;;;;;6.77;6.10;;;6.30;99.90;;;;;;5053855;28;20175;-65
2021/05/05 05:19:14;;;;;;;10.90;6.80;;;6.40;99.90;;;;;;5070992;28;20166;-64
2021/05/05 05:21:39;;;;;;;10.37;6.63;;;6.50;99.90;;;;;;5054559;28;20218;-67
2021/05/05 05:24:05;;;;;;;8.00;6.40;;;6.70;99.90;;;;;;5059695;28;20202;-66
2021/05/05 05:26:31;;;;;;;10.90;6.60;;;6.80;99.90;;;;;;5071144;28;20171;-64
2021/05/05 05:28:57;;;;;;;10.23;6.53;;;6.90;99.90;;;;;;5067638;28;20189;-65
2021/05/05 05:31:22;;;;;;;18.83;8.73;;;7.00;99.90;;;;;;5072042;28;20275;-66
2021/05/05 05:33:48;;;;;;;10.23;6.63;;;7.10;99.90;;;;;;5068112;28;20212;-65
2021/05/05 05:36:13;;;;;;;7.37;5.53;;;7.10;99.90;;;;;;5054866;28;20654;-64
2021/05/05 05:38:39;;;;;;;14.33;7.00;;;7.10;99.90;;;;;;5059026;28;20186;-65
2021/05/05 05:41:05;;;;;;;11.60;6.33;;;7.20;99.90;;;;;;5074094;28;20580;-65
2021/05/05 05:45:58;;;;;;;12.23;6.73;;;7.60;99.90;;;;;;5053155;28;20214;-64
2021/05/05 05:48:24;;;;;;;12.00;6.87;;;7.20;99.90;;;;;;5052259;28;20171;-64
2021/05/05 05:50:49;;;;;;;7.97;6.50;;;7.40;99.90;;;;;;5033332;28;20174;-64
2021/05/05 05:53:15;;;;;;;10.53;6.63;;;8.10;99.90;;;;;;5035191;28;20199;-64
2021/05/05 05:55:44;;;;;;;8.80;6.33;;;7.90;99.90;;;;;;5054533;28;20178;-63
2021/05/05 05:58:11;;;;;;;11.73;6.30;;;8.00;99.90;;;;;;5053804;28;20171;-63
2021/05/05 06:00:36;;;;;;;12.37;6.50;;;8.30;99.90;;;;;;5033946;28;20644;-64
2021/05/05 06:03:05;;;;;;;12.53;6.53;;;8.60;99.90;;;;;;5034084;28;20167;-63
2021/05/05 06:05:32;;;;;;;10.03;6.33;;;8.80;99.90;;;;;;5034341;28;20238;-63
2021/05/05 06:07:57;;;;;;;12.67;6.93;;;8.60;99.90;;;;;;5034264;28;20183;-64
2021/05/05 06:10:23;;;;;;;13.60;6.87;;;8.60;99.90;;;;;;5051670;28;20559;-64
2021/05/05 06:12:49;;;;;;;15.70;7.00;;;8.70;99.90;;;;;;5053986;28;20214;-64
2021/05/05 06:15:15;;;;;;;12.13;6.93;;;8.60;99.90;;;;;;5036484;28;20199;-64
2021/05/05 06:17:41;;;;;;;10.67;6.70;;;8.70;99.90;;;;;;5034095;28;20196;-64
2021/05/05 06:20:07;;;;;;;10.20;6.30;;;8.80;99.90;;;;;;5048868;28;20524;-64
2021/05/05 06:22:33;;;;;;;12.23;6.53;;;8.70;99.90;;;;;;5034101;28;20186;-64
2021/05/05 06:25:00;;;;;;;9.50;6.17;;;8.70;99.90;;;;;;5047180;28;20207;-64
2021/05/05 06:27:26;;;;;;;11.53;6.20;;;8.90;99.90;;;;;;5053957;28;20236;-64
2021/05/05 06:29:52;;;;;;;12.90;6.60;;;9.20;99.90;;;;;;5041243;28;20175;-64
2021/05/05 06:32:17;;;;;;;9.63;6.20;;;9.10;99.90;;;;;;5033833;28;20175;-64
2021/05/05 06:34:43;;;;;;;14.33;7.67;;;9.00;99.90;;;;;;5039622;28;20210;-64
2021/05/05 06:37:08;;;;;;;10.37;6.50;;;8.90;99.90;;;;;;5053525;28;20171;-64
2021/05/05 06:39:34;;;;;;;8.40;6.37;;;8.90;99.90;;;;;;5044286;28;20266;-64
2021/05/05 06:42:00;;;;;;;10.87;6.70;;;9.00;99.90;;;;;;5033018;28;20164;-64
2021/05/05 06:44:26;;;;;;;10.30;6.97;;;9.20;99.90;;;;;;5034592;28;20235;-64
2021/05/05 06:46:54;;;;;;;31.67;6.57;;;9.30;99.90;;;;;;5033361;28;20175;-64
2021/05/05 06:49:24;;;;;;;10.30;7.60;;;9.30;99.90;;;;;;5034587;28;20175;-64
2021/05/05 06:51:50;;;;;;;18.33;7.67;;;8.70;99.90;;;;;;5033582;28;20689;-65
2021/05/05 06:54:17;;;;;;;8.60;6.27;;;8.10;99.90;;;;;;5053247;28;20206;-64
2021/05/05 06:56:43;;;;;;;7.77;5.30;;;7.40;99.90;;;;;;5053015;28;20253;-64
2021/05/05 06:59:09;;;;;;;6.07;5.47;;;6.90;99.90;;;;;;5033449;28;20255;-65
2021/05/05 07:01:38;;;;;;;4.47;4.10;;;6.60;99.90;;;;;;5032926;28;20186;-64
2021/05/05 07:04:09;;;;;;;4.27;3.97;;;6.40;99.90;;;;;;5036381;28;20246;-65
2021/05/05 07:06:35;;;;;;;4.70;4.40;;;6.30;99.90;;;;;;5046464;28;20202;-65
2021/05/05 07:09:02;;;;;;;4.23;3.93;;;6.40;99.90;;;;;;5053121;28;20539;-64
2021/05/05 07:11:27;;;;;;;3.83;3.63;;;6.60;99.90;;;;;;5040689;28;20183;-64
2021/05/05 07:13:54;;;;;;;4.17;3.87;;;6.80;99.90;;;;;;5032918;28;20211;-65
2021/05/05 07:16:21;;;;;;;5.73;4.20;;;7.10;99.90;;;;;;5041068;28;20182;-65
2021/05/05 07:18:47;;;;;;;6.47;4.10;;;7.70;99.90;;;;;;5032889;28;20653;-65
2021/05/05 07:21:14;;;;;;;4.70;4.20;;;8.60;99.90;;;;;;5041841;28;20261;-65
2021/05/05 07:23:39;;;;;;;4.43;4.13;;;9.50;99.90;;;;;;5039091;28;20214;-65
2021/05/05 07:26:05;;;;;;;6.40;4.30;;;10.30;99.90;;;;;;5040384;28;20580;-65
2021/05/05 07:28:31;;;;;;;4.30;3.90;;;10.80;99.90;;;;;;5052791;28;20539;-64
2021/05/05 07:30:57;;;;;;;5.87;4.60;;;10.90;99.90;;;;;;5045086;28;20198;-64
2021/05/05 07:33:24;;;;;;;6.03;4.80;;;10.80;99.90;;;;;;5032606;28;20696;-65
2021/05/05 07:35:53;;;;;;;7.27;4.83;;;10.30;99.90;;;;;;5037809;28;20197;-65
2021/05/05 07:51:14;;;;;;;6.57;5.97;;;8.40;99.90;;;;;;5042592;28;20642;-65
2021/05/05 07:53:40;;;;;;;10.77;7.00;;;8.40;99.90;;;;;;5031579;28;20294;-65
2021/05/05 07:56:06;;;;;;;11.57;6.33;;;8.30;99.90;;;;;;5039027;28;20233;-66
2021/05/05 07:58:32;;;;;;;6.63;5.53;;;8.30;99.90;;;;;;5052245;28;20163;-65
2021/05/05 08:00:57;;;;;;;9.67;7.10;;;8.30;99.90;;;;;;5045417;28;20259;-64
2021/05/05 08:03:23;;;;;;;7.30;6.70;;;8.10;99.90;;;;;;5022385;28;20708;-66
2021/05/05 08:05:49;;;;;;;5.80;5.13;;;7.40;99.90;;;;;;5020044;28;20190;-65
2021/05/05 08:08:15;;;;;;;5.90;4.67;;;6.60;99.90;;;;;;5051844;28;20587;-66
2021/05/05 08:10:41;;;;;;;5.67;5.23;;;6.10;99.90;;;;;;5047569;28;20202;-66
2021/05/05 08:13:07;;;;;;;6.70;6.10;;;5.40;99.90;;;;;;5031532;28;20242;-66
2021/05/05 08:15:34;;;;;;;5.37;4.87;;;5.50;99.90;;;;;;5033492;28;20536;-65
2021/05/05 08:18:05;;;;;;;4.07;3.77;;;5.40;99.90;;;;;;5051504;28;20170;-66
2021/05/05 08:20:34;;;;;;;3.97;3.67;;;5.30;99.90;;;;;;5049264;28;20171;-65
2021/05/05 08:23:10;;;;;;;4.10;3.70;;;5.20;99.90;;;;;;5037530;28;20175;-66
2021/05/05 08:25:36;;;;;;;4.50;4.20;;;5.20;99.90;;;;;;5049545;28;20163;-66
2021/05/05 08:28:02;;;;;;;4.50;4.20;;;5.30;99.90;;;;;;5031693;28;20175;-65
2021/05/05 08:30:28;;;;;;;6.87;4.07;;;5.30;99.90;;;;;;5032393;28;20175;-65
2021/05/05 08:32:54;;;;;;;5.20;4.80;;;5.20;99.90;;;;;;5051217;28;20175;-65
2021/05/05 08:35:20;;;;;;;4.63;4.33;;;5.30;99.90;;;;;;5051183;28;20206;-65
2021/05/05 08:37:48;;;;;;;6.33;4.77;;;5.60;99.90;;;;;;5049714;28;20177;-66
2021/05/05 08:40:14;;;;;;;4.60;4.30;;;5.90;99.90;;;;;;5051170;28;20177;-66
2021/05/05 08:42:41;;;;;;;6.00;5.60;;;6.10;99.90;;;;;;5032026;28;20256;-66
2021/05/05 08:45:16;;;;;;;5.83;5.37;;;6.40;99.90;;;;;;5030903;28;20703;-66
2021/05/05 08:47:47;;;;;;;5.80;5.33;;;6.90;99.90;;;;;;5050115;28;20569;-65
2021/05/05 08:50:14;;;;;;;5.40;4.90;;;7.50;99.90;;;;;;5050646;28;20670;-66
2021/05/05 08:52:41;;;;;;;3.87;3.63;;;8.10;99.90;;;;;;5033055;28;20196;-65
2021/05/05 08:55:09;;;;;;;5.03;4.63;;;8.40;99.90;;;;;;5031444;28;20196;-66
2021/05/05 08:57:35;;;;;;;7.80;4.40;;;8.90;99.90;;;;;;5047105;28;20186;-66
2021/05/05 09:00:03;;;;;;;4.43;4.10;;;9.60;99.90;;;;;;5051293;28;20166;-65
2021/05/05 09:02:29;;;;;;;4.37;3.93;;;10.10;99.90;;;;;;5035332;28;20538;-65
2021/05/05 09:05:00;;;;;;;3.93;3.67;;;10.20;99.90;;;;;;5031704;28;20195;-65
2021/05/05 09:07:37;;;;;;;4.10;3.70;;;10.50;99.90;;;;;;5050626;28;20545;-65
2021/05/05 09:10:19;;;;;;;12.53;4.40;;;10.60;99.90;;;;;;5054406;28;20269;-67
2021/05/05 09:12:49;;;;;;;3.53;3.07;;;10.40;99.90;;;;;;5036799;28;20618;-65
2021/05/05 09:15:19;;;;;;;3.93;3.60;;;10.70;99.90;;;;;;5035142;28;20199;-66
2021/05/05 09:17:49;;;;;;;4.03;3.37;;;10.80;99.90;;;;;;5052276;28;20244;-65
2021/05/05 09:20:15;;;;;;;5.87;3.60;;;11.10;99.90;;;;;;5055382;28;20198;-65
2021/05/05 09:22:48;;;;;;;4.93;3.60;;;11.30;99.90;;;;;;5038561;28;20689;-66
2021/05/05 09:25:26;;;;;;;6.17;3.77;;;11.20;99.90;;;;;;5054930;28;20620;-65
2021/05/05 09:28:10;;;;;;;3.57;3.27;;;11.20;99.90;;;;;;5036305;28;20187;-65
2021/05/05 09:30:38;;;;;;;6.63;4.20;;;11.20;99.90;;;;;;5034689;28;20182;-65
2021/05/05 09:33:04;;;;;;;5.27;3.43;;;;;;;;;;5014976;28;20244;-65
2021/05/05 09:35:40;;;;;;;7.63;3.60;;;10.80;99.90;;;;;;5014686;28;20176;-65
2021/05/05 09:38:11;;;;;;;4.53;4.13;;;10.90;99.90;;;;;;5054473;28;20210;-66
2021/05/05 09:40:53;;;;;;;3.97;3.67;;;10.60;99.90;;;;;;5054297;28;20521;-65
2021/05/05 09:43:19;;;;;;;6.47;4.13;;;10.20;99.90;;;;;;5015001;28;20188;-64
2021/05/05 09:45:45;;;;;;;5.07;4.13;;;10.20;99.90;;;;;;5015493;28;20198;-65
2021/05/05 09:48:12;;;;;;;4.97;4.43;;;10.30;99.90;;;;;;5054568;28;20907;-66
2021/05/05 09:50:41;;;;;;;6.27;3.90;;;10.40;99.90;;;;;;5053484;28;20197;-65
2021/05/05 09:53:21;;;;;;;6.80;3.90;;;11.10;99.90;;;;;;5052156;28;20218;-66
2021/05/05 09:55:58;;;;;;;9.30;4.77;;;11.20;99.90;;;;;;5053745;28;20195;-65
2021/05/05 09:58:28;;;;;;;6.27;3.90;;;12.00;99.90;;;;;;5034497;28;20175;-66
2021/05/05 10:01:06;;;;;;;6.63;3.87;;;12.50;99.90;;;;;;5035588;28;20273;-65
2021/05/05 10:03:43;;;;;;;8.27;4.40;;;12.20;99.90;;;;;;5054347;28;20555;-65
2021/05/05 10:06:28;;;;;;;5.47;4.07;;;11.80;99.90;;;;;;5050762;28;20558;-65
2021/05/05 10:08:59;;;;;;;4.00;3.60;;;11.80;99.90;;;;;;5034216;28;20175;-65
2021/05/05 10:11:34;;;;;;;4.90;4.00;;;11.80;99.90;;;;;;5039373;28;20182;-65
2021/05/05 10:14:11;;;;;;;4.47;3.93;;;11.10;99.90;;;;;;5054066;28;20206;-65
2021/05/05 10:16:40;;;;;;;6.47;4.27;;;10.80;99.90;;;;;;5053029;28;20171;-65
2021/05/05 10:19:18;;;;;;;3.93;3.63;;;10.60;99.90;;;;;;5054017;28;20535;-65
2021/05/05 10:21:50;;;;;;;6.63;4.27;;;10.70;99.90;;;;;;5053411;28;20224;-65
2021/05/05 10:24:16;;;;;;;6.43;4.13;;;10.60;99.90;;;;;;5048070;28;20214;-66
2021/05/05 10:26:42;;;;;;;5.20;3.97;;;10.80;99.90;;;;;;5034048;28;20190;-65
2021/05/05 10:29:09;;;;;;;5.97;4.03;;;11.50;99.90;;;;;;5036099;28;20214;-65
2021/05/05 10:31:36;;;;;;;3.90;3.50;;;12.10;99.90;;;;;;5035565;28;20183;-65
2021/05/05 10:34:11;;;;;;;6.27;4.33;;;12.30;99.90;;;;;;5034269;28;20294;-65
2021/05/05 10:36:40;;;;;;;3.87;3.53;;;12.50;99.90;;;;;;5053802;28;20249;-65
2021/05/05 10:39:18;;;;;;;6.20;2.97;;;12.70;99.90;;;;;;5052014;28;20178;-65
2021/05/05 10:42:12;;;;;;;3.20;3.00;;;12.40;99.90;;;;;;5035013;28;20878;-65
2021/05/05 10:44:51;;;;;;;12.13;4.97;;;12.20;99.90;;;;;;5038824;28;20737;-65
2021/05/05 10:47:23;;;;;;;3.93;3.53;;;12.20;99.90;;;;;;5053565;28;20597;-65
2021/05/05 10:49:58;;;;;;;6.60;3.90;;;12.00;99.90;;;;;;5045179;28;20251;-65
2021/05/05 10:52:23;;;;;;;6.73;4.00;;;11.70;99.90;;;;;;5033615;28;20178;-64
2021/05/05 10:54:58;;;;;;;3.77;3.47;;;11.10;99.90;;;;;;5040106;28;20301;-64
2021/05/05 10:57:25;;;;;;;3.70;3.40;;;10.90;99.90;;;;;;5053336;28;20178;-64
2021/05/05 10:59:57;;;;;;;4.07;3.23;;;11.10;99.90;;;;;;5045092;28;20193;-64
2021/05/05 11:02:38;;;;;;;4.67;4.27;;;11.60;99.90;;;;;;5033317;28;20180;-64
2021/05/05 11:05:09;;;;;;;4.20;3.80;;;12.00;99.90;;;;;;5041742;28;20208;-64
2021/05/05 11:07:48;;;;;;;3.90;3.60;;;11.90;99.90;;;;;;5053052;28;20167;-64
2021/05/05 11:10:35;;;;;;;6.33;5.07;;;12.50;99.90;;;;;;5042098;28;20191;-64
2021/05/05 11:13:24;;;;;;;8.17;4.27;;;13.00;99.90;;;;;;5032233;28;20195;-64
2021/05/05 11:15:56;;;;;;;6.17;4.23;;;13.20;99.90;;;;;;5050555;28;20183;-64
2021/05/05 11:20:58;;;;;;;6.60;3.33;;;12.70;99.90;;;;;;5032669;28;20189;-64
2021/05/05 11:23:44;;;;;;;6.93;4.90;;;12.40;99.90;;;;;;5032940;28;20191;-64
2021/05/05 11:26:16;;;;;;;7.57;4.50;;;12.40;99.90;;;;;;5045422;28;20672;-64
2021/05/05 11:28:56;;;;;;;11.67;6.07;;;12.40;99.90;;;;;;5034083;28;20213;-64
2021/05/05 11:31:50;;;;;;;3.77;3.47;;;12.60;99.90;;;;;;5052382;28;20181;-64
2021/05/05 11:34:22;;;;;;;3.97;3.67;;;12.60;99.90;;;;;;5045801;28;20365;-64
2021/05/05 11:37:00;;;;;;;9.30;6.30;;;12.30;99.90;;;;;;5032603;28;20663;-64
2021/05/05 11:39:40;;;;;;;8.27;4.93;;;12.40;99.90;;;;;;5039615;28;20178;-64
2021/05/05 11:42:16;;;;;;;5.87;4.10;;;12.30;99.90;;;;;;5043090;28;20320;-64
2021/05/05 11:44:43;;;;;;;9.17;5.37;;;12.40;99.90;;;;;;5052547;28;20213;-64
2021/05/05 11:47:15;;;;;;;14.00;4.50;;;12.10;99.90;;;;;;5048183;28;20187;-64
2021/05/05 11:49:49;;;;;;;5.90;3.90;;;11.70;99.90;;;;;;5088790;28;20530;-64
2021/05/05 11:52:31;;;;;;;5.17;4.10;;;11.60;99.90;;;;;;5089039;28;20638;-64
2021/05/05 11:55:27;;;;;;;8.90;4.50;;;11.40;99.90;;;;;;5073238;28;20539;-64
2021/05/05 11:57:58;;;;;;;4.90;3.80;;;11.50;99.90;;;;;;5067384;28;20213;-64
2021/05/05 12:00:36;;;;;;;4.87;4.23;;;11.50;99.90;;;;;;5068733;28;20239;-64
2021/05/05 12:03:05;;;;;;;6.83;4.80;;;11.50;99.90;;;;;;5068714;28;20659;-64
2021/05/05 12:05:36;;;;;;;7.80;4.17;;;12.30;99.90;;;;;;5068617;28;20182;-64
2021/05/05 12:08:20;;;;;;;7.80;4.13;;;13.00;99.90;;;;;;5068235;28;20209;-64
2021/05/05 12:10:58;;;;;;;3.53;2.97;;;13.70;99.90;;;;;;5067692;28;20208;-64
2021/05/05 12:13:39;;;;;;;5.97;3.33;;;13.90;99.90;;;;;;5068461;28;20205;-64
2021/05/05 12:16:12;;;;;;;5.30;3.73;;;13.00;99.90;;;;;;5064751;28;20190;-64
2021/05/05 12:18:46;;;;;;;4.93;2.90;;;12.50;99.90;;;;;;5048465;28;20783;-64
2021/05/05 12:21:16;;;;;;;6.37;3.83;;;12.40;99.90;;;;;;5052710;28;20210;-64
2021/05/05 12:23:44;;;;;;;6.80;3.13;;;13.00;99.90;;;;;;5068221;28;20201;-64
2021/05/05 12:26:34;;;;;;;5.13;3.50;;;13.60;99.90;;;;;;5063792;28;20186;-63
2021/05/05 12:29:04;;;;;;;6.70;3.53;;;14.40;99.90;;;;;;5056490;28;20303;-64
2021/05/05 12:31:32;;;;;;;3.40;3.10;;;15.00;99.90;;;;;;5061292;28;20183;-65
2021/05/05 12:34:00;;;;;;;3.20;2.90;;;14.90;99.90;;;;;;5047902;28;20270;-63
2021/05/05 12:36:28;;;;;;;3.00;2.80;;;14.00;99.90;;;;;;5052894;28;20197;-64
2021/05/05 12:38:59;;;;;;;3.17;2.93;;;12.60;99.90;;;;;;5067173;28;20186;-63
2021/05/05 12:41:26;;;;;;;4.03;3.20;;;11.20;99.90;;;;;;5047514;28;20171;-63
2021/05/05 12:43:58;;;;;;;5.07;3.20;;;10.00;99.90;;;;;;5047769;28;20550;-62
2021/05/05 12:46:55;;;;;;;3.77;3.30;;;9.60;99.90;;;;;;5047961;28;20183;-63
2021/05/05 12:49:35;;;;;;;3.23;3.03;;;9.60;99.90;;;;;;5047979;28;20545;-63
2021/05/05 12:52:03;;;;;;;3.63;3.30;;;9.40;99.90;;;;;;5053569;28;20183;-63
2021/05/05 12:54:34;;;;;;;3.83;3.40;;;9.30;99.90;;;;;;5064110;28;20287;-63
2021/05/05 12:57:01;;;;;;;3.93;3.43;;;9.50;99.90;;;;;;5056462;28;20174;-62
2021/05/05 12:59:31;;;;;;;4.97;3.47;;;10.20;99.90;;;;;;5063574;28;20186;-62
2021/05/05 13:02:08;;;;;;;3.77;3.40;;;10.50;99.90;;;;;;5051101;28;20720;-63
2021/05/05 13:04:35;;;;;;;2.97;2.80;;;10.60;99.90;;;;;;5042859;28;20209;-63
2021/05/05 13:07:01;;;;;;;3.53;3.23;;;10.20;99.90;;;;;;5034424;28;20172;-63
2021/05/05 13:09:27;;;;;;;3.37;3.07;;;10.00;99.90;;;;;;5047252;28;20557;-63
2021/05/05 13:12:26;;;;;;;3.23;3.03;;;10.20;99.90;;;;;;5052416;28;20185;-63
2021/05/05 13:15:07;;;;;;;3.30;3.10;;;10.60;99.90;;;;;;5037526;28;20245;-63
2021/05/05 13:31:14;;;;;;;5.90;3.40;;;13.60;99.90;;;;;;5042905;28;20218;-63
2021/05/05 13:33:40;;;;;;;5.30;3.20;;;13.50;99.90;;;;;;5038739;28;20207;-63